Terminal Aerodrome Forecast
Issued by NWS

Home | Current Version | Previous Version | Text Only | Print | Product List | Glossary On
Versions: 1 2 3 4 5 6 7 8 9 10 11 12 13 14 15 16 17 18 19 20 21 22 23 24 25 26 27
000
FTUS41 KOKX 291400 AAA
TAFTEB
TAF AMD
KTEB 291430Z 2915/3012 33008KT P6SM FEW040
     FM291700 27007KT P6SM SCT070
     FM292000 24007KT P6SM BKN070
     FM300300 VRB03KT P6SM SCT050=

USA.gov is the U.S. government's official web portal to all federal, state and local government web resources and services.